Time,TemperatureF,DewpointF,PressureIn,WindDirection,WindDirectionDegrees,WindSpeedMPH,WindSpeedGustMPH,Humidity,HourlyPrecipIn,Conditions,Clouds,dailyrainin,SoftwareType,DateUTC
2013-01-23 00:08:00,28.4,10.3,30.01,ENE,67,0.0,-999.0,46,-99.99,,,0.00,Acu-Link.com,2013-01-23 05:08:00,
2013-01-23 00:23:00,28.2,9.1,30.02,ENE,67,0.0,-999.0,44,-99.99,,,0.00,Acu-Link.com,2013-01-23 05:23:00,
2013-01-23 00:38:00,28.0,11.3,30.02,ENE,67,0.0,-999.0,49,-99.99,,,0.00,Acu-Link.com,2013-01-23 05:38:00,
2013-01-23 00:54:00,27.7,12.4,30.02,ENE,67,0.0,-999.0,52,-99.99,,,0.00,Acu-Link.com,2013-01-23 05:54:00,
2013-01-23 01:09:00,27.3,13.3,30.02,ESE,112,0.0,-999.0,55,-99.99,,,0.00,Acu-Link.com,2013-01-23 06:09:00,
2013-01-23 01:24:00,27.7,11.1,30.03,South,180,0.0,-999.0,49,-99.99,,,0.00,Acu-Link.com,2013-01-23 06:24:00,
2013-01-23 01:39:00,29.7,9.5,30.03,NE,45,1.1,-999.0,42,-99.99,,,0.00,Acu-Link.com,2013-01-23 06:39:00,
2013-01-23 01:54:00,28.0,9.4,30.03,ESE,112,0.0,-999.0,45,-99.99,,,0.00,Acu-Link.com,2013-01-23 06:54:00,
2013-01-23 02:09:00,27.9,7.3,30.03,East,90,0.0,-999.0,41,-99.99,,,0.00,Acu-Link.com,2013-01-23 07:09:00,
2013-01-23 02:24:00,28.4,10.3,30.03,ENE,67,0.0,-999.0,46,-99.99,,,0.00,Acu-Link.com,2013-01-23 07:24:00,
2013-01-23 02:39:00,28.0,9.9,30.03,ESE,112,0.0,-999.0,46,-99.99,,,0.00,Acu-Link.com,2013-01-23 07:39:00,
2013-01-23 02:54:00,28.0,9.9,30.03,SE,135,0.0,-999.0,46,-99.99,,,0.00,Acu-Link.com,2013-01-23 07:54:00,
2013-01-23 03:10:00,27.9,9.8,30.04,ESE,112,0.0,-999.0,46,-99.99,,,0.00,Acu-Link.com,2013-01-23 08:10:00,
2013-01-23 03:25:00,27.7,10.6,30.03,ESE,112,0.0,-999.0,48,-99.99,,,0.00,Acu-Link.com,2013-01-23 08:25:00,
2013-01-23 03:40:00,27.3,8.8,30.04,West,270,0.0,-999.0,45,-99.99,,,0.00,Acu-Link.com,2013-01-23 08:40:00,
2013-01-23 03:55:00,27.3,9.8,30.04,ESE,112,0.0,-999.0,47,-99.99,,,0.00,Acu-Link.com,2013-01-23 08:55:00,
2013-01-23 04:14:00,27.3,10.7,30.03,SW,225,0.0,-999.0,49,-99.99,,,0.00,Acu-Link.com,2013-01-23 09:14:00,
2013-01-23 04:29:00,27.3,11.6,30.03,SSW,202,0.0,-999.0,51,-99.99,,,0.00,Acu-Link.com,2013-01-23 09:29:00,
2013-01-23 04:45:00,26.2,11.0,30.04,ESE,112,0.0,-999.0,52,-99.99,,,0.00,Acu-Link.com,2013-01-23 09:45:00,
2013-01-23 05:00:00,25.5,11.2,30.04,ESE,112,0.0,-999.0,54,-99.99,,,0.00,Acu-Link.com,2013-01-23 10:00:00,
2013-01-23 05:15:00,25.3,8.8,30.04,SSE,157,0.0,-999.0,49,-99.99,,,0.00,Acu-Link.com,2013-01-23 10:15:00,
2013-01-23 05:30:00,25.9,9.4,30.04,East,90,1.1,-999.0,49,-99.99,,,0.00,Acu-Link.com,2013-01-23 10:30:00,
2013-01-23 05:46:00,27.0,7.5,30.04,SW,225,0.0,-999.0,43,-99.99,,,0.00,Acu-Link.com,2013-01-23 10:46:00,
2013-01-23 06:01:00,26.6,13.0,30.04,WSW,247,0.0,-999.0,56,-99.99,,,0.00,Acu-Link.com,2013-01-23 11:01:00,
2013-01-23 06:16:00,26.4,11.6,30.05,East,90,0.0,-999.0,53,-99.99,,,0.00,Acu-Link.com,2013-01-23 11:16:00,
2013-01-23 06:31:00,26.6,10.0,30.06,ENE,67,0.0,-999.0,49,-99.99,,,0.00,Acu-Link.com,2013-01-23 11:31:00,
2013-01-23 07:01:00,26.2,8.8,30.07,SE,135,0.0,-999.0,47,-99.99,,,0.00,Acu-Link.com,2013-01-23 12:01:00,
2013-01-23 07:32:00,26.1,9.1,30.07,SE,135,0.0,-999.0,48,-99.99,,,0.00,Acu-Link.com,2013-01-23 12:32:00,
2013-01-23 08:17:00,26.1,7.2,30.08,SSE,157,0.0,-999.0,44,-99.99,,,0.00,Acu-Link.com,2013-01-23 13:17:00,
2013-01-23 08:32:00,26.4,6.5,30.08,SSE,157,0.0,-999.0,42,-99.99,,,0.00,Acu-Link.com,2013-01-23 13:32:00,
2013-01-23 08:47:00,27.0,9.0,30.08,SE,135,0.0,-999.0,46,-99.99,,,0.00,Acu-Link.com,2013-01-23 13:47:00,
2013-01-23 09:02:00,27.7,8.2,30.08,South,180,0.0,-999.0,43,-99.99,,,0.00,Acu-Link.com,2013-01-23 14:02:00,
2013-01-23 09:17:00,29.3,8.6,30.09,East,90,0.0,-999.0,41,-99.99,,,0.00,Acu-Link.com,2013-01-23 14:17:00,
2013-01-23 09:33:00,31.5,9.4,30.08,SW,225,3.2,-999.0,39,-99.99,,,0.00,Acu-Link.com,2013-01-23 14:33:00,
2013-01-23 09:48:00,32.4,9.7,30.09,SW,225,1.7,-999.0,38,-99.99,,,0.00,Acu-Link.com,2013-01-23 14:48:00,
2013-01-23 10:03:00,33.1,11.4,30.09,SW,225,0.0,-999.0,40,-99.99,,,0.00,Acu-Link.com,2013-01-23 15:03:00,
2013-01-23 10:18:00,33.8,10.9,30.10,South,180,0.0,-999.0,38,-99.99,,,0.00,Acu-Link.com,2013-01-23 15:18:00,
2013-01-23 10:33:00,34.7,11.7,30.10,SW,225,2.2,-999.0,38,-99.99,,,0.00,Acu-Link.com,2013-01-23 15:33:00,
2013-01-23 10:48:00,35.4,11.7,30.10,West,270,0.0,-999.0,37,-99.99,,,0.00,Acu-Link.com,2013-01-23 15:48:00,
2013-01-23 11:03:00,36.3,13.2,30.09,WSW,247,2.7,-999.0,38,-99.99,,,0.00,Acu-Link.com,2013-01-23 16:03:00,
2013-01-23 11:18:00,37.6,13.7,30.09,NNW,337,1.7,-999.0,37,-99.99,,,0.00,Acu-Link.com,2013-01-23 16:18:00,
2013-01-23 11:33:00,37.9,14.6,30.08,WSW,247,1.7,-999.0,38,-99.99,,,0.00,Acu-Link.com,2013-01-23 16:33:00,
2013-01-23 11:48:00,39.7,16.2,30.07,SW,225,4.7,-999.0,38,-99.99,,,0.00,Acu-Link.com,2013-01-23 16:48:00,
2013-01-23 12:04:00,40.3,17.3,30.06,WSW,247,6.3,-999.0,39,-99.99,,,0.00,Acu-Link.com,2013-01-23 17:04:00,
2013-01-23 12:19:00,40.6,17.6,30.05,South,180,1.7,-999.0,39,-99.99,,,0.00,Acu-Link.com,2013-01-23 17:19:00,
2013-01-23 12:34:00,41.9,18.8,30.04,SW,225,5.8,-999.0,39,-99.99,,,0.00,Acu-Link.com,2013-01-23 17:34:00,
2013-01-23 12:49:00,42.3,19.1,30.02,WSW,247,1.1,-999.0,39,-99.99,,,0.00,Acu-Link.com,2013-01-23 17:49:00,
2013-01-23 13:04:00,42.8,19.6,30.01,SW,225,2.2,-999.0,39,-99.99,,,0.00,Acu-Link.com,2013-01-23 18:04:00,
2013-01-23 13:19:00,43.9,20.6,29.99,NW,315,3.2,-999.0,39,-99.99,,,0.00,Acu-Link.com,2013-01-23 18:19:00,
2013-01-23 13:34:00,44.4,21.0,29.98,SSW,202,1.7,-999.0,39,-99.99,,,0.00,Acu-Link.com,2013-01-23 18:34:00,
2013-01-23 13:49:00,45.5,22.6,29.97,West,270,4.7,-999.0,40,-99.99,,,0.00,Acu-Link.com,2013-01-23 18:49:00,
2013-01-23 14:04:00,46.9,22.6,29.97,North,0,5.8,-999.0,38,-99.99,,,0.00,Acu-Link.com,2013-01-23 19:04:00,
2013-01-23 14:20:00,47.3,23.6,29.96,SW,225,3.2,-999.0,39,-99.99,,,0.00,Acu-Link.com,2013-01-23 19:20:00,
2013-01-23 14:35:00,47.3,23.6,29.95,SE,135,2.7,-999.0,39,-99.99,,,0.00,Acu-Link.com,2013-01-23 19:35:00,
2013-01-23 14:50:00,50.2,26.2,29.95,ESE,112,2.7,-999.0,39,-99.99,,,0.00,Acu-Link.com,2013-01-23 19:50:00,
2013-01-23 15:05:00,50.2,26.2,29.94,WSW,247,1.1,-999.0,39,-99.99,,,0.00,Acu-Link.com,2013-01-23 20:05:00,
2013-01-23 15:20:00,50.2,26.8,29.93,SW,225,4.7,-999.0,40,-99.99,,,0.00,Acu-Link.com,2013-01-23 20:20:00,
2013-01-23 15:35:00,50.4,27.0,29.93,SSE,157,2.7,-999.0,40,-99.99,,,0.00,Acu-Link.com,2013-01-23 20:35:00,
2013-01-23 15:50:00,50.7,27.3,29.93,SW,225,6.3,-999.0,40,-99.99,,,0.00,Acu-Link.com,2013-01-23 20:50:00,
2013-01-23 16:05:00,51.3,27.8,29.92,WSW,247,5.3,-999.0,40,-99.99,,,0.00,Acu-Link.com,2013-01-23 21:05:00,
2013-01-23 16:20:00,50.5,27.1,29.92,SSW,202,5.3,-999.0,40,-99.99,,,0.00,Acu-Link.com,2013-01-23 21:20:00,
2013-01-23 16:36:00,50.2,26.8,29.92,West,270,6.3,-999.0,40,-99.99,,,0.00,Acu-Link.com,2013-01-23 21:36:00,
2013-01-23 16:51:00,49.3,26.6,29.92,SW,225,3.7,-999.0,41,-99.99,,,0.00,Acu-Link.com,2013-01-23 21:51:00,
2013-01-23 17:06:00,49.5,26.8,29.91,SSW,202,4.2,-999.0,41,-99.99,,,0.00,Acu-Link.com,2013-01-23 22:06:00,
2013-01-23 17:21:00,49.1,27.0,29.91,SW,225,5.8,-999.0,42,-99.99,,,0.00,Acu-Link.com,2013-01-23 22:21:00,
2013-01-23 17:36:00,48.2,26.2,29.91,WSW,247,2.7,-999.0,42,-99.99,,,0.00,Acu-Link.com,2013-01-23 22:36:00,
2013-01-23 17:51:00,47.7,27.4,29.91,SW,225,0.0,-999.0,45,-99.99,,,0.00,Acu-Link.com,2013-01-23 22:51:00,
2013-01-23 18:06:00,46.6,27.5,29.91,WSW,247,1.7,-999.0,47,-99.99,,,0.00,Acu-Link.com,2013-01-23 23:06:00,
2013-01-23 18:21:00,46.0,27.9,29.91,NNW,337,2.7,-999.0,49,-99.99,,,0.00,Acu-Link.com,2013-01-23 23:21:00,
2013-01-23 18:36:00,44.8,27.8,29.92,SW,225,0.0,-999.0,51,-99.99,,,0.00,Acu-Link.com,2013-01-23 23:36:00,
2013-01-23 18:52:00,44.1,27.6,29.91,West,270,0.0,-999.0,52,-99.99,,,0.00,Acu-Link.com,2013-01-23 23:52:00,
2013-01-23 19:07:00,43.3,27.3,29.91,SSE,157,0.0,-999.0,53,-99.99,,,0.00,Acu-Link.com,2013-01-24 00:07:00,
2013-01-23 19:22:00,43.0,28.0,29.90,SE,135,0.0,-999.0,55,-99.99,,,0.00,Acu-Link.com,2013-01-24 00:22:00,
2013-01-23 19:37:00,42.8,28.2,29.90,SE,135,1.1,-999.0,56,-99.99,,,0.00,Acu-Link.com,2013-01-24 00:37:00,
2013-01-23 19:52:00,42.8,28.2,29.90,WNW,292,2.2,-999.0,56,-99.99,,,0.00,Acu-Link.com,2013-01-24 00:52:00,
2013-01-23 20:07:00,42.3,27.7,29.90,WNW,292,0.0,-999.0,56,-99.99,,,0.00,Acu-Link.com,2013-01-24 01:07:00,
2013-01-23 20:22:00,42.4,26.9,29.89,SW,225,3.7,-999.0,54,-99.99,,,0.00,Acu-Link.com,2013-01-24 01:22:00,
2013-01-23 20:37:00,41.9,26.9,29.90,WNW,292,2.2,-999.0,55,-99.99,,,0.00,Acu-Link.com,2013-01-24 01:37:00,
2013-01-23 20:52:00,41.9,26.5,29.90,South,180,4.2,-999.0,54,-99.99,,,0.00,Acu-Link.com,2013-01-24 01:52:00,
2013-01-23 21:08:00,41.5,26.1,29.90,NW,315,1.1,-999.0,54,-99.99,,,0.00,Acu-Link.com,2013-01-24 02:08:00,
2013-01-23 21:23:00,41.4,26.0,29.89,NW,315,1.1,-999.0,54,-99.99,,,0.00,Acu-Link.com,2013-01-24 02:23:00,
2013-01-23 21:38:00,41.4,26.5,29.88,WSW,247,1.7,-999.0,55,-99.99,,,0.00,Acu-Link.com,2013-01-24 02:38:00,
2013-01-23 21:53:00,41.0,26.1,29.89,NNE,22,1.7,-999.0,55,-99.99,,,0.00,Acu-Link.com,2013-01-24 02:53:00,
2013-01-23 22:08:00,41.4,26.0,29.88,NW,315,2.7,-999.0,54,-99.99,,,0.00,Acu-Link.com,2013-01-24 03:08:00,
2013-01-23 22:23:00,42.1,26.7,29.88,WSW,247,4.2,-999.0,54,-99.99,,,0.00,Acu-Link.com,2013-01-24 03:23:00,
2013-01-23 22:38:00,42.4,26.9,29.88,ENE,67,0.0,-999.0,54,-99.99,,,0.00,Acu-Link.com,2013-01-24 03:38:00,
2013-01-23 22:53:00,42.6,27.1,29.87,WSW,247,3.7,-999.0,54,-99.99,,,0.00,Acu-Link.com,2013-01-24 03:53:00,
2013-01-23 23:08:00,42.1,26.7,29.86,SSW,202,1.7,-999.0,54,-99.99,,,0.00,Acu-Link.com,2013-01-24 04:08:00,
2013-01-23 23:24:00,41.9,27.4,29.85,West,270,1.7,-999.0,56,-99.99,,,0.00,Acu-Link.com,2013-01-24 04:24:00,
2013-01-23 23:39:00,41.2,27.6,29.86,SSW,202,2.2,-999.0,58,-99.99,,,0.00,Acu-Link.com,2013-01-24 04:39:00,
2013-01-23 23:54:00,40.8,27.6,29.86,WSW,247,2.7,-999.0,59,-99.99,,,0.00,Acu-Link.com,2013-01-24 04:54:00,